sensor_id;sensor_type;location;lat;lon;timestamp;pressure;altitude;pressure_sealevel;temperature;humidity
46379;BME280;32084;42.254;22.744;2024-03-17T00:01:35;95397.53;;;7.58;89.34
46379;BME280;32084;42.254;22.744;2024-03-17T00:04:07;95391.94;;;7.51;89.36
46379;BME280;32084;42.254;22.744;2024-03-17T00:06:36;95399.31;;;7.38;89.19
46379;BME280;32084;42.254;22.744;2024-03-17T00:09:08;95397.22;;;7.41;90.88
46379;BME280;32084;42.254;22.744;2024-03-17T00:11:39;95404.13;;;7.13;88.84
46379;BME280;32084;42.254;22.744;2024-03-17T00:14:11;95401.03;;;6.77;91.25
46379;BME280;32084;42.254;22.744;2024-03-17T00:16:43;95402.75;;;6.88;91.74
46379;BME280;32084;42.254;22.744;2024-03-17T00:19:14;95397.56;;;6.87;91.57
46379;BME280;32084;42.254;22.744;2024-03-17T00:21:48;95402.47;;;6.60;92.31
46379;BME280;32084;42.254;22.744;2024-03-17T00:24:22;95393.31;;;6.74;92.08
46379;BME280;32084;42.254;22.744;2024-03-17T00:26:54;95395.34;;;6.92;92.33
46379;BME280;32084;42.254;22.744;2024-03-17T00:29:25;95400.72;;;7.01;91.60
46379;BME280;32084;42.254;22.744;2024-03-17T00:31:57;95398.59;;;6.95;91.05
46379;BME280;32084;42.254;22.744;2024-03-17T00:34:29;95398.28;;;6.89;90.39
46379;BME280;32084;42.254;22.744;2024-03-17T00:37:01;95410.06;;;6.96;90.73
46379;BME280;32084;42.254;22.744;2024-03-17T00:39:33;95400.75;;;6.80;90.58
46379;BME280;32084;42.254;22.744;2024-03-17T00:42:02;95396.44;;;6.37;92.43
46379;BME280;32084;42.254;22.744;2024-03-17T00:44:34;95395.53;;;6.27;93.25
46379;BME280;32084;42.254;22.744;2024-03-17T00:47:06;95399.09;;;6.37;93.32
46379;BME280;32084;42.254;22.744;2024-03-17T00:49:39;95394.28;;;6.52;92.77
46379;BME280;32084;42.254;22.744;2024-03-17T00:52:11;95404.22;;;6.50;91.85
46379;BME280;32084;42.254;22.744;2024-03-17T00:54:46;95405.78;;;6.53;91.51
46379;BME280;32084;42.254;22.744;2024-03-17T00:57:18;95404.72;;;6.44;91.70
46379;BME280;32084;42.254;22.744;2024-03-17T00:59:50;95398.19;;;6.27;92.62
46379;BME280;32084;42.254;22.744;2024-03-17T01:02:23;95403.53;;;6.16;92.49
46379;BME280;32084;42.254;22.744;2024-03-17T01:04:55;95399.75;;;5.97;93.61
46379;BME280;32084;42.254;22.744;2024-03-17T01:07:27;95413.38;;;5.93;93.60
46379;BME280;32084;42.254;22.744;2024-03-17T01:09:59;95402.63;;;6.05;93.42
46379;BME280;32084;42.254;22.744;2024-03-17T01:12:30;95401.56;;;6.29;92.18
46379;BME280;32084;42.254;22.744;2024-03-17T01:15:03;95398.34;;;6.14;92.34
46379;BME280;32084;42.254;22.744;2024-03-17T01:17:35;95403.59;;;6.04;92.88
46379;BME280;32084;42.254;22.744;2024-03-17T01:20:07;95393.91;;;5.82;93.48
46379;BME280;32084;42.254;22.744;2024-03-17T01:22:38;95400.94;;;5.61;94.99
46379;BME280;32084;42.254;22.744;2024-03-17T01:25:10;95404.16;;;5.76;95.26
46379;BME280;32084;42.254;22.744;2024-03-17T01:27:42;95399.50;;;6.00;93.24
46379;BME280;32084;42.254;22.744;2024-03-17T01:30:14;95395.16;;;5.99;93.04
46379;BME280;32084;42.254;22.744;2024-03-17T01:32:46;95398.56;;;6.01;93.42
46379;BME280;32084;42.254;22.744;2024-03-17T01:35:18;95395.06;;;5.90;93.41
46379;BME280;32084;42.254;22.744;2024-03-17T01:37:50;95387.63;;;5.72;94.12
46379;BME280;32084;42.254;22.744;2024-03-17T01:40:20;95389.91;;;5.88;94.15
46379;BME280;32084;42.254;22.744;2024-03-17T01:42:52;95385.84;;;6.05;94.14
46379;BME280;32084;42.254;22.744;2024-03-17T01:45:28;95386.72;;;6.05;93.55
46379;BME280;32084;42.254;22.744;2024-03-17T01:48:01;95386.38;;;6.20;92.86
46379;BME280;32084;42.254;22.744;2024-03-17T01:50:36;95387.97;;;6.22;92.67
46379;BME280;32084;42.254;22.744;2024-03-17T01:53:09;95390.97;;;6.18;91.98
46379;BME280;32084;42.254;22.744;2024-03-17T01:55:39;95394.72;;;5.83;93.00
46379;BME280;32084;42.254;22.744;2024-03-17T01:58:11;95392.91;;;5.83;93.55
46379;BME280;32084;42.254;22.744;2024-03-17T02:00:43;95387.47;;;5.85;93.92
46379;BME280;32084;42.254;22.744;2024-03-17T02:03:13;95389.19;;;5.75;93.95
46379;BME280;32084;42.254;22.744;2024-03-17T02:05:44;95393.28;;;5.35;95.04
46379;BME280;32084;42.254;22.744;2024-03-17T02:08:16;95391.81;;;5.31;95.96
46379;BME280;32084;42.254;22.744;2024-03-17T02:10:52;95391.91;;;5.63;95.41
46379;BME280;32084;42.254;22.744;2024-03-17T02:13:24;95394.75;;;5.72;93.91
46379;BME280;32084;42.254;22.744;2024-03-17T02:15:55;95392.78;;;5.53;94.37
46379;BME280;32084;42.254;22.744;2024-03-17T02:18:28;95386.50;;;5.42;95.27
46379;BME280;32084;42.254;22.744;2024-03-17T02:20:59;95389.31;;;5.30;96.77
46379;BME280;32084;42.254;22.744;2024-03-17T02:23:33;95385.44;;;5.34;97.69
46379;BME280;32084;42.254;22.744;2024-03-17T02:26:05;95387.16;;;5.67;95.80
46379;BME280;32084;42.254;22.744;2024-03-17T02:28:40;95381.78;;;5.90;95.14
46379;BME280;32084;42.254;22.744;2024-03-17T02:31:12;95385.28;;;6.01;94.48
46379;BME280;32084;42.254;22.744;2024-03-17T02:33:44;95391.25;;;5.82;93.60
46379;BME280;32084;42.254;22.744;2024-03-17T02:36:16;95393.25;;;5.90;93.17
46379;BME280;32084;42.254;22.744;2024-03-17T02:38:48;95387.94;;;5.90;92.74
46379;BME280;32084;42.254;22.744;2024-03-17T02:41:42;95388.31;;;5.97;92.60
46379;BME280;32084;42.254;22.744;2024-03-17T02:44:14;95378.28;;;6.00;92.95
46379;BME280;32084;42.254;22.744;2024-03-17T02:46:46;95387.41;;;5.75;93.34
46379;BME280;32084;42.254;22.744;2024-03-17T02:49:16;95397.94;;;5.54;94.43
46379;BME280;32084;42.254;22.744;2024-03-17T02:51:49;95397.59;;;5.47;95.49
46379;BME280;32084;42.254;22.744;2024-03-17T02:54:21;95394.00;;;5.48;95.96
46379;BME280;32084;42.254;22.744;2024-03-17T02:56:53;95395.28;;;5.65;95.96
46379;BME280;32084;42.254;22.744;2024-03-17T02:59:22;95392.06;;;5.83;95.07
46379;BME280;32084;42.254;22.744;2024-03-17T03:01:54;95389.09;;;5.65;95.35
46379;BME280;32084;42.254;22.744;2024-03-17T03:04:26;95394.28;;;5.66;95.42
46379;BME280;32084;42.254;22.744;2024-03-17T03:06:58;95390.84;;;5.87;94.63
46379;BME280;32084;42.254;22.744;2024-03-17T03:09:29;95393.75;;;5.84;95.04
46379;BME280;32084;42.254;22.744;2024-03-17T03:12:04;95387.47;;;5.85;95.83
46379;BME280;32084;42.254;22.744;2024-03-17T03:14:36;95389.72;;;6.01;95.67
46379;BME280;32084;42.254;22.744;2024-03-17T03:17:08;95393.25;;;6.01;95.49
46379;BME280;32084;42.254;22.744;2024-03-17T03:19:39;95383.78;;;6.09;94.48
46379;BME280;32084;42.254;22.744;2024-03-17T03:22:11;95389.81;;;6.11;94.51
46379;BME280;32084;42.254;22.744;2024-03-17T03:24:42;95394.88;;;6.14;94.63
46379;BME280;32084;42.254;22.744;2024-03-17T03:27:14;95391.25;;;6.15;93.72
46379;BME280;32084;42.254;22.744;2024-03-17T03:29:46;95390.66;;;6.11;93.76
46379;BME280;32084;42.254;22.744;2024-03-17T03:32:18;95394.22;;;6.00;93.83
46379;BME280;32084;42.254;22.744;2024-03-17T03:34:49;95390.59;;;5.90;94.29
46379;BME280;32084;42.254;22.744;2024-03-17T03:37:21;95395.91;;;6.01;94.12
46379;BME280;32084;42.254;22.744;2024-03-17T03:39:53;95403.00;;;6.01;94.39
46379;BME280;32084;42.254;22.744;2024-03-17T03:42:25;95393.81;;;5.94;93.89
46379;BME280;32084;42.254;22.744;2024-03-17T03:44:57;95406.22;;;5.72;94.36
46379;BME280;32084;42.254;22.744;2024-03-17T03:47:29;95409.06;;;5.80;95.35
46379;BME280;32084;42.254;22.744;2024-03-17T03:50:01;95410.72;;;5.93;94.36
46379;BME280;32084;42.254;22.744;2024-03-17T03:52:32;95412.00;;;5.77;95.00
46379;BME280;32084;42.254;22.744;2024-03-17T03:55:04;95416.16;;;5.47;96.43
46379;BME280;32084;42.254;22.744;2024-03-17T03:57:36;95420.63;;;5.47;97.11
46379;BME280;32084;42.254;22.744;2024-03-17T04:00:08;95428.69;;;5.57;96.60
46379;BME280;32084;42.254;22.744;2024-03-17T04:02:49;95427.03;;;5.44;96.73
46379;BME280;32084;42.254;22.744;2024-03-17T04:05:21;95422.78;;;5.53;96.76
46379;BME280;32084;42.254;22.744;2024-03-17T04:07:54;95432.63;;;5.74;96.19
46379;BME280;32084;42.254;22.744;2024-03-17T04:10:25;95433.06;;;5.90;95.51
46379;BME280;32084;42.254;22.744;2024-03-17T04:12:57;95438.09;;;5.93;94.71
46379;BME280;32084;42.254;22.744;2024-03-17T04:15:29;95435.28;;;5.74;94.28
46379;BME280;32084;42.254;22.744;2024-03-17T04:18:01;95440.41;;;5.54;95.56
46379;BME280;32084;42.254;22.744;2024-03-17T04:20:33;95434.41;;;5.30;96.17
46379;BME280;32084;42.254;22.744;2024-03-17T04:23:05;95444.75;;;5.21;97.26
46379;BME280;32084;42.254;22.744;2024-03-17T04:25:36;95449.09;;;5.22;96.56
46379;BME280;32084;42.254;22.744;2024-03-17T04:28:08;95444.63;;;5.34;95.89
46379;BME280;32084;42.254;22.744;2024-03-17T04:30:39;95449.09;;;5.45;95.21
46379;BME280;32084;42.254;22.744;2024-03-17T04:33:11;95447.50;;;5.42;94.79
46379;BME280;32084;42.254;22.744;2024-03-17T04:35:43;95446.94;;;5.27;95.49
46379;BME280;32084;42.254;22.744;2024-03-17T04:38:15;95454.50;;;5.21;95.27
46379;BME280;32084;42.254;22.744;2024-03-17T04:40:47;95455.22;;;5.00;96.18
46379;BME280;32084;42.254;22.744;2024-03-17T04:43:18;95457.72;;;4.79;97.40
46379;BME280;32084;42.254;22.744;2024-03-17T04:45:58;95453.88;;;4.72;98.27
46379;BME280;32084;42.254;22.744;2024-03-17T04:48:31;95456.81;;;4.92;97.52
46379;BME280;32084;42.254;22.744;2024-03-17T04:51:03;95469.69;;;5.07;97.24
46379;BME280;32084;42.254;22.744;2024-03-17T04:53:35;95471.75;;;5.15;96.80
46379;BME280;32084;42.254;22.744;2024-03-17T04:56:07;95463.19;;;5.34;95.32
46379;BME280;32084;42.254;22.744;2024-03-17T04:58:36;95479.91;;;5.46;95.00
46379;BME280;32084;42.254;22.744;2024-03-17T05:01:08;95475.22;;;5.61;94.71
46379;BME280;32084;42.254;22.744;2024-03-17T05:03:39;95486.91;;;5.70;93.89
46379;BME280;32084;42.254;22.744;2024-03-17T05:06:11;95482.41;;;5.81;93.13
46379;BME280;32084;42.254;22.744;2024-03-17T05:08:43;95483.09;;;5.95;93.96
46379;BME280;32084;42.254;22.744;2024-03-17T05:11:15;95489.53;;;6.03;93.07
46379;BME280;32084;42.254;22.744;2024-03-17T05:13:48;95488.94;;;6.00;92.69
46379;BME280;32084;42.254;22.744;2024-03-17T05:16:20;95489.16;;;5.85;93.50
46379;BME280;32084;42.254;22.744;2024-03-17T05:18:54;95490.63;;;5.78;94.51
46379;BME280;32084;42.254;22.744;2024-03-17T05:21:26;95491.66;;;6.10;93.63
46379;BME280;32084;42.254;22.744;2024-03-17T05:24:01;95500.13;;;6.47;92.08
46379;BME280;32084;42.254;22.744;2024-03-17T05:26:34;95494.53;;;6.71;91.66
46379;BME280;32084;42.254;22.744;2024-03-17T05:29:06;95497.13;;;7.03;90.70
46379;BME280;32084;42.254;22.744;2024-03-17T05:31:36;95498.41;;;7.09;90.57
46379;BME280;32084;42.254;22.744;2024-03-17T05:34:10;95501.00;;;7.20;91.07
46379;BME280;32084;42.254;22.744;2024-03-17T05:36:43;95498.75;;;7.47;90.34
46379;BME280;32084;42.254;22.744;2024-03-17T05:39:15;95505.00;;;7.67;89.47
46379;BME280;32084;42.254;22.744;2024-03-17T05:41:47;95504.91;;;7.78;89.92
46379;BME280;32084;42.254;22.744;2024-03-17T05:44:19;95501.31;;;7.98;88.74
46379;BME280;32084;42.254;22.744;2024-03-17T05:46:51;95504.56;;;8.12;89.38
46379;BME280;32084;42.254;22.744;2024-03-17T05:49:25;95504.72;;;8.30;90.18
46379;BME280;32084;42.254;22.744;2024-03-17T05:51:57;95501.28;;;8.49;88.53
46379;BME280;32084;42.254;22.744;2024-03-17T05:54:29;95507.28;;;8.70;87.71
46379;BME280;32084;42.254;22.744;2024-03-17T05:57:01;95506.44;;;8.89;87.42
46379;BME280;32084;42.254;22.744;2024-03-17T05:59:36;95509.25;;;9.07;86.82
46379;BME280;32084;42.254;22.744;2024-03-17T06:04:23;95515.50;;;9.73;81.44
46379;BME280;32084;42.254;22.744;2024-03-17T06:06:56;95510.88;;;10.48;76.52
46379;BME280;32084;42.254;22.744;2024-03-17T06:09:28;95511.47;;;11.14;73.13
46379;BME280;32084;42.254;22.744;2024-03-17T06:12:00;95509.81;;;11.65;71.02
46379;BME280;32084;42.254;22.744;2024-03-17T06:14:32;95513.88;;;12.04;67.97
46379;BME280;32084;42.254;22.744;2024-03-17T06:17:06;95518.75;;;12.08;67.00
46379;BME280;32084;42.254;22.744;2024-03-17T06:19:39;95520.13;;;11.86;68.00
46379;BME280;32084;42.254;22.744;2024-03-17T06:22:11;95520.63;;;12.16;66.38
46379;BME280;32084;42.254;22.744;2024-03-17T06:24:43;95514.19;;;12.01;68.77
46379;BME280;32084;42.254;22.744;2024-03-17T06:27:15;95518.06;;;12.06;67.86
46379;BME280;32084;42.254;22.744;2024-03-17T06:29:47;95525.34;;;11.88;67.43
46379;BME280;32084;42.254;22.744;2024-03-17T06:32:19;95519.97;;;12.14;67.84
46379;BME280;32084;42.254;22.744;2024-03-17T06:34:52;95527.00;;;11.89;67.09
46379;BME280;32084;42.254;22.744;2024-03-17T06:37:24;95532.94;;;12.01;67.61
46379;BME280;32084;42.254;22.744;2024-03-17T06:39:56;95533.59;;;11.95;66.72
46379;BME280;32084;42.254;22.744;2024-03-17T06:42:29;95542.66;;;12.02;69.78
46379;BME280;32084;42.254;22.744;2024-03-17T06:45:01;95537.94;;;11.69;70.27
46379;BME280;32084;42.254;22.744;2024-03-17T06:47:35;95545.78;;;11.37;70.73
46379;BME280;32084;42.254;22.744;2024-03-17T06:50:08;95545.97;;;11.43;71.17
46379;BME280;32084;42.254;22.744;2024-03-17T06:52:41;95547.06;;;11.59;71.13
46379;BME280;32084;42.254;22.744;2024-03-17T06:55:13;95546.06;;;11.51;70.27
46379;BME280;32084;42.254;22.744;2024-03-17T06:57:45;95552.78;;;11.56;70.02
46379;BME280;32084;42.254;22.744;2024-03-17T07:00:16;95551.59;;;11.84;69.43
46379;BME280;32084;42.254;22.744;2024-03-17T07:02:49;95548.28;;;11.64;71.22
46379;BME280;32084;42.254;22.744;2024-03-17T07:05:21;95556.72;;;11.96;69.31
46379;BME280;32084;42.254;22.744;2024-03-17T07:07:53;95556.25;;;12.51;68.42
46379;BME280;32084;42.254;22.744;2024-03-17T07:10:25;95550.47;;;12.97;64.71
46379;BME280;32084;42.254;22.744;2024-03-17T07:12:58;95547.31;;;13.26;65.52
46379;BME280;32084;42.254;22.744;2024-03-17T07:15:30;95553.25;;;14.10;62.19
46379;BME280;32084;42.254;22.744;2024-03-17T07:18:02;95557.09;;;14.63;59.55
46379;BME280;32084;42.254;22.744;2024-03-17T07:20:34;95547.88;;;14.58;61.42
46379;BME280;32084;42.254;22.744;2024-03-17T07:23:06;95561.75;;;14.70;58.58
46379;BME280;32084;42.254;22.744;2024-03-17T07:25:39;95554.00;;;14.75;59.17
46379;BME280;32084;42.254;22.744;2024-03-17T07:28:11;95546.59;;;14.77;58.48
46379;BME280;32084;42.254;22.744;2024-03-17T07:30:47;95557.75;;;15.20;56.72
46379;BME280;32084;42.254;22.744;2024-03-17T07:33:19;95549.59;;;15.66;55.17
46379;BME280;32084;42.254;22.744;2024-03-17T07:35:55;95546.47;;;15.39;56.64
46379;BME280;32084;42.254;22.744;2024-03-17T07:38:29;95549.22;;;14.85;57.16
46379;BME280;32084;42.254;22.744;2024-03-17T07:43:34;95536.97;;;15.06;59.34
46379;BME280;32084;42.254;22.744;2024-03-17T07:46:07;95540.47;;;15.75;56.52
46379;BME280;32084;42.254;22.744;2024-03-17T07:48:41;95536.41;;;16.09;58.55
46379;BME280;32084;42.254;22.744;2024-03-17T07:51:14;95537.38;;;17.04;53.71
46379;BME280;32084;42.254;22.744;2024-03-17T07:53:47;95540.00;;;16.97;52.55
46379;BME280;32084;42.254;22.744;2024-03-17T07:56:19;95526.53;;;15.49;55.56
46379;BME280;32084;42.254;22.744;2024-03-17T07:58:51;95519.91;;;15.13;55.04
46379;BME280;32084;42.254;22.744;2024-03-17T08:01:24;95523.59;;;14.66;58.01
46379;BME280;32084;42.254;22.744;2024-03-17T08:03:56;95521.66;;;14.52;60.42
46379;BME280;32084;42.254;22.744;2024-03-17T08:06:28;95517.59;;;14.16;61.29
46379;BME280;32084;42.254;22.744;2024-03-17T08:09:00;95515.13;;;14.46;63.35
46379;BME280;32084;42.254;22.744;2024-03-17T08:11:33;95514.66;;;14.97;60.05
46379;BME280;32084;42.254;22.744;2024-03-17T08:14:05;95514.66;;;15.20;61.05
46379;BME280;32084;42.254;22.744;2024-03-17T08:16:36;95521.69;;;15.21;59.98
46379;BME280;32084;42.254;22.744;2024-03-17T08:19:08;95531.00;;;16.24;58.14
46379;BME280;32084;42.254;22.744;2024-03-17T08:21:39;95531.16;;;17.25;54.35
46379;BME280;32084;42.254;22.744;2024-03-17T08:24:11;95525.53;;;17.76;53.99
46379;BME280;32084;42.254;22.744;2024-03-17T08:26:43;95532.16;;;17.46;53.66
46379;BME280;32084;42.254;22.744;2024-03-17T08:29:17;95517.81;;;17.73;53.38
46379;BME280;32084;42.254;22.744;2024-03-17T08:31:49;95530.63;;;18.14;49.00
46379;BME280;32084;42.254;22.744;2024-03-17T08:34:21;95532.91;;;18.52;48.52
46379;BME280;32084;42.254;22.744;2024-03-17T08:36:54;95532.56;;;18.76;46.32
46379;BME280;32084;42.254;22.744;2024-03-17T08:39:26;95527.44;;;18.87;48.10
46379;BME280;32084;42.254;22.744;2024-03-17T08:41:59;95519.13;;;18.47;47.50
46379;BME280;32084;42.254;22.744;2024-03-17T08:44:33;95516.00;;;17.81;48.60
46379;BME280;32084;42.254;22.744;2024-03-17T08:47:05;95511.09;;;17.63;47.98
46379;BME280;32084;42.254;22.744;2024-03-17T08:49:36;95505.47;;;16.93;50.06
46379;BME280;32084;42.254;22.744;2024-03-17T08:52:08;95501.41;;;16.82;49.71
46379;BME280;32084;42.254;22.744;2024-03-17T08:54:40;95501.91;;;16.56;50.17
46379;BME280;32084;42.254;22.744;2024-03-17T08:57:12;95504.56;;;16.34;49.65
46379;BME280;32084;42.254;22.744;2024-03-17T08:59:47;95506.41;;;16.49;50.57
46379;BME280;32084;42.254;22.744;2024-03-17T09:02:19;95497.72;;;16.53;50.55
46379;BME280;32084;42.254;22.744;2024-03-17T09:04:52;95507.22;;;17.01;47.88
46379;BME280;32084;42.254;22.744;2024-03-17T09:07:25;95501.16;;;17.42;46.68
46379;BME280;32084;42.254;22.744;2024-03-17T09:09:57;95506.22;;;17.80;45.71
46379;BME280;32084;42.254;22.744;2024-03-17T09:12:29;95513.66;;;18.34;42.63
46379;BME280;32084;42.254;22.744;2024-03-17T09:15:01;95504.63;;;17.85;44.29
46379;BME280;32084;42.254;22.744;2024-03-17T09:17:33;95502.00;;;17.99;43.12
46379;BME280;32084;42.254;22.744;2024-03-17T09:20:06;95500.81;;;17.80;44.59
46379;BME280;32084;42.254;22.744;2024-03-17T09:22:43;95501.59;;;18.02;43.82
46379;BME280;32084;42.254;22.744;2024-03-17T09:25:15;95496.84;;;19.07;42.00
46379;BME280;32084;42.254;22.744;2024-03-17T09:27:47;95497.28;;;19.10;42.21
46379;BME280;32084;42.254;22.744;2024-03-17T09:30:19;95500.63;;;19.59;41.56
46379;BME280;32084;42.254;22.744;2024-03-17T09:32:51;95501.25;;;20.01;42.24
46379;BME280;32084;42.254;22.744;2024-03-17T09:35:23;95503.94;;;20.21;40.21
46379;BME280;32084;42.254;22.744;2024-03-17T09:37:55;95506.41;;;20.36;39.77
46379;BME280;32084;42.254;22.744;2024-03-17T09:40:28;95495.84;;;19.88;40.93
46379;BME280;32084;42.254;22.744;2024-03-17T09:43:00;95502.75;;;19.84;41.26
46379;BME280;32084;42.254;22.744;2024-03-17T09:45:34;95499.59;;;19.54;41.64
46379;BME280;32084;42.254;22.744;2024-03-17T09:48:08;95502.91;;;19.09;40.33
46379;BME280;32084;42.254;22.744;2024-03-17T09:50:52;95504.13;;;18.51;40.82
46379;BME280;32084;42.254;22.744;2024-03-17T09:53:29;95504.44;;;18.22;40.39
46379;BME280;32084;42.254;22.744;2024-03-17T09:58:33;95496.59;;;17.99;41.60
46379;BME280;32084;42.254;22.744;2024-03-17T10:01:06;95495.69;;;17.63;40.70
46379;BME280;32084;42.254;22.744;2024-03-17T10:06:17;95492.00;;;16.78;40.40
46379;BME280;32084;42.254;22.744;2024-03-17T10:08:50;95484.19;;;16.47;41.43
46379;BME280;32084;42.254;22.744;2024-03-17T10:11:23;95489.25;;;16.56;43.40
46379;BME280;32084;42.254;22.744;2024-03-17T10:13:59;95489.94;;;16.80;41.88
46379;BME280;32084;42.254;22.744;2024-03-17T10:16:32;95483.69;;;16.94;42.60
46379;BME280;32084;42.254;22.744;2024-03-17T10:19:05;95483.81;;;17.08;43.62
46379;BME280;32084;42.254;22.744;2024-03-17T10:21:39;95485.88;;;17.06;42.86
46379;BME280;32084;42.254;22.744;2024-03-17T10:24:12;95485.78;;;16.99;43.23
46379;BME280;32084;42.254;22.744;2024-03-17T10:26:48;95492.63;;;16.80;41.49
46379;BME280;32084;42.254;22.744;2024-03-17T10:31:58;95475.38;;;16.96;43.67
46379;BME280;32084;42.254;22.744;2024-03-17T10:34:31;95485.00;;;16.84;40.50
46379;BME280;32084;42.254;22.744;2024-03-17T10:39:42;95483.22;;;17.12;40.23
46379;BME280;32084;42.254;22.744;2024-03-17T10:42:15;95482.84;;;17.15;40.92
46379;BME280;32084;42.254;22.744;2024-03-17T10:44:52;95477.03;;;17.18;39.65
46379;BME280;32084;42.254;22.744;2024-03-17T10:47:26;95477.03;;;17.18;41.18
46379;BME280;32084;42.254;22.744;2024-03-17T10:49:59;95479.28;;;17.36;42.47
46379;BME280;32084;42.254;22.744;2024-03-17T10:52:35;95486.25;;;17.81;40.90
46379;BME280;32084;42.254;22.744;2024-03-17T10:55:08;95476.63;;;17.71;41.27
46379;BME280;32084;42.254;22.744;2024-03-17T10:57:44;95476.59;;;17.65;41.54
46379;BME280;32084;42.254;22.744;2024-03-17T11:00:21;95470.19;;;17.72;43.06
46379;BME280;32084;42.254;22.744;2024-03-17T11:02:56;95480.31;;;17.64;41.67
46379;BME280;32084;42.254;22.744;2024-03-17T11:05:29;95464.88;;;17.29;41.80
46379;BME280;32084;42.254;22.744;2024-03-17T11:08:01;95464.34;;;17.41;42.99
46379;BME280;32084;42.254;22.744;2024-03-17T11:10:35;95465.47;;;17.53;41.15
46379;BME280;32084;42.254;22.744;2024-03-17T11:13:21;95459.75;;;17.41;41.46
46379;BME280;32084;42.254;22.744;2024-03-17T11:15:54;95449.84;;;17.48;42.92
46379;BME280;32084;42.254;22.744;2024-03-17T11:18:28;95460.94;;;17.32;40.95
46379;BME280;32084;42.254;22.744;2024-03-17T11:21:05;95453.69;;;17.11;41.64
46379;BME280;32084;42.254;22.744;2024-03-17T11:23:42;95451.94;;;17.25;43.72
46379;BME280;32084;42.254;22.744;2024-03-17T11:26:14;95449.25;;;17.25;43.21
46379;BME280;32084;42.254;22.744;2024-03-17T11:28:57;95447.47;;;17.39;42.40
46379;BME280;32084;42.254;22.744;2024-03-17T11:31:40;95447.38;;;17.25;41.11
46379;BME280;32084;42.254;22.744;2024-03-17T11:34:25;95451.88;;;17.40;41.97
46379;BME280;32084;42.254;22.744;2024-03-17T11:36:59;95448.19;;;17.82;40.86
46379;BME280;32084;42.254;22.744;2024-03-17T11:39:50;95440.06;;;18.17;41.20
46379;BME280;32084;42.254;22.744;2024-03-17T11:42:32;95449.97;;;18.45;38.05
46379;BME280;32084;42.254;22.744;2024-03-17T11:45:02;95449.81;;;18.60;37.62
46379;BME280;32084;42.254;22.744;2024-03-17T11:47:35;95426.72;;;18.64;41.11
46379;BME280;32084;42.254;22.744;2024-03-17T11:50:09;95426.31;;;18.73;40.51
46379;BME280;32084;42.254;22.744;2024-03-17T11:52:42;95429.72;;;18.34;40.21
46379;BME280;32084;42.254;22.744;2024-03-17T11:55:16;95428.59;;;18.08;40.33
46379;BME280;32084;42.254;22.744;2024-03-17T11:57:55;95425.66;;;17.68;40.60
46379;BME280;32084;42.254;22.744;2024-03-17T12:00:27;95416.47;;;17.63;42.33
46379;BME280;32084;42.254;22.744;2024-03-17T12:02:59;95415.47;;;17.70;41.52
46379;BME280;32084;42.254;22.744;2024-03-17T12:05:32;95414.78;;;17.62;42.12
46379;BME280;32084;42.254;22.744;2024-03-17T12:08:04;95426.13;;;17.50;40.93
46379;BME280;32084;42.254;22.744;2024-03-17T12:10:36;95419.31;;;17.54;42.66
46379;BME280;32084;42.254;22.744;2024-03-17T12:13:18;95411.44;;;17.88;43.20
46379;BME280;32084;42.254;22.744;2024-03-17T12:15:52;95408.09;;;17.86;42.43
46379;BME280;32084;42.254;22.744;2024-03-17T12:18:39;95410.63;;;17.94;42.30
46379;BME280;32084;42.254;22.744;2024-03-17T12:21:17;95404.56;;;17.85;42.39
46379;BME280;32084;42.254;22.744;2024-03-17T12:23:49;95406.50;;;17.70;43.60
46379;BME280;32084;42.254;22.744;2024-03-17T12:26:21;95406.88;;;17.60;42.23
46379;BME280;32084;42.254;22.744;2024-03-17T12:28:53;95400.47;;;17.33;43.41
46379;BME280;32084;42.254;22.744;2024-03-17T12:31:25;95391.22;;;17.21;46.12
46379;BME280;32084;42.254;22.744;2024-03-17T12:33:57;95397.47;;;17.21;45.72
46379;BME280;32084;42.254;22.744;2024-03-17T12:36:30;95399.53;;;17.19;44.52
46379;BME280;32084;42.254;22.744;2024-03-17T12:39:14;95389.56;;;17.20;45.25
46379;BME280;32084;42.254;22.744;2024-03-17T12:42:11;95390.56;;;17.18;44.48
46379;BME280;32084;42.254;22.744;2024-03-17T12:44:57;95389.94;;;17.16;44.42
46379;BME280;32084;42.254;22.744;2024-03-17T12:47:30;95388.13;;;17.24;45.33
46379;BME280;32084;42.254;22.744;2024-03-17T12:50:08;95386.56;;;17.08;43.86
46379;BME280;32084;42.254;22.744;2024-03-17T12:52:51;95391.13;;;16.86;43.66
46379;BME280;32084;42.254;22.744;2024-03-17T12:55:23;95384.75;;;16.93;44.97
46379;BME280;32084;42.254;22.744;2024-03-17T12:58:14;95386.25;;;16.96;45.21
46379;BME280;32084;42.254;22.744;2024-03-17T13:01:05;95385.22;;;16.97;46.11
46379;BME280;32084;42.254;22.744;2024-03-17T13:03:36;95383.56;;;16.96;45.63
46379;BME280;32084;42.254;22.744;2024-03-17T13:06:20;95377.72;;;16.92;45.47
46379;BME280;32084;42.254;22.744;2024-03-17T13:08:54;95376.66;;;16.93;46.31
46379;BME280;32084;42.254;22.744;2024-03-17T13:11:26;95381.56;;;16.83;44.83
46379;BME280;32084;42.254;22.744;2024-03-17T13:13:58;95376.94;;;16.77;45.76
46379;BME280;32084;42.254;22.744;2024-03-17T13:16:30;95378.31;;;16.73;45.46
46379;BME280;32084;42.254;22.744;2024-03-17T13:19:03;95369.97;;;16.68;45.54
46379;BME280;32084;42.254;22.744;2024-03-17T13:21:35;95372.34;;;16.56;45.72
46379;BME280;32084;42.254;22.744;2024-03-17T13:24:08;95367.16;;;16.54;46.65
46379;BME280;32084;42.254;22.744;2024-03-17T13:26:39;95358.03;;;16.34;47.58
46379;BME280;32084;42.254;22.744;2024-03-17T13:29:12;95367.53;;;16.51;46.90
46379;BME280;32084;42.254;22.744;2024-03-17T13:31:45;95364.44;;;16.76;47.01
46379;BME280;32084;42.254;22.744;2024-03-17T13:34:17;95361.28;;;16.94;46.75
46379;BME280;32084;42.254;22.744;2024-03-17T13:36:52;95354.88;;;16.73;47.41
46379;BME280;32084;42.254;22.744;2024-03-17T13:39:28;95353.44;;;16.56;47.03
46379;BME280;32084;42.254;22.744;2024-03-17T13:42:01;95357.56;;;16.52;47.04